Time;durP1;ratioP1;P1;durP2;ratioP2;P2;SDS_P1;SDS_P2;PMS_P1;PMS_P2;Temp;Humidity;BMP_temperature;BMP_pressure;BME280_temperature;BME280_humidity;BME280_pressure;Samples;Min_cycle;Max_cycle;Signal;HPM_P1;HPM_P2
2022/07/30 00:01:18;;;;;;;0.10;0.10;;;;;;;;;;5089579;28;20131;-85
2022/07/30 00:03:46;;;;;;;0.25;0.20;;;;;;;;;;5092147;28;20059;-84
2022/07/30 00:06:15;;;;;;;0.28;0.25;;;;;;;;;;5087395;28;20400;-86
2022/07/30 00:08:44;;;;;;;0.20;0.20;;;;;;;;;;5089938;28;20131;-82
2022/07/30 00:11:14;;;;;;;0.30;0.30;;;;;;;;;;5091227;28;20543;-81
2022/07/30 00:13:42;;;;;;;0.40;0.30;;;;;;;;;;5091030;28;20095;-83
2022/07/30 00:16:10;;;;;;;0.55;0.50;;;;;;;;;;5090583;28;20076;-82
2022/07/30 00:18:39;;;;;;;0.20;0.20;;;;;;;;;;5089519;28;20044;-83
2022/07/30 00:21:10;;;;;;;0.10;0.10;;;;;;;;;;5088395;28;20445;-82
2022/07/30 00:23:48;;;;;;;0.20;0.20;;;;;;;;;;5082506;28;20062;-82
2022/07/30 00:26:29;;;;;;;0.70;0.35;;;;;;;;;;5085020;28;20365;-83
2022/07/30 00:28:57;;;;;;;1.05;0.40;;;;;;;;;;5091012;28;20438;-81
2022/07/30 00:31:25;;;;;;;0.90;0.52;;;;;;;;;;5087742;28;20526;-81
2022/07/30 00:33:54;;;;;;;0.95;0.45;;;;;;;;;;5086291;28;20131;-81
2022/07/30 00:36:22;;;;;;;0.35;0.35;;;;;;;;;;5077783;28;20056;-81
2022/07/30 00:38:52;;;;;;;0.13;0.13;;;;;;;;;;5067544;28;20091;-80
2022/07/30 00:41:21;;;;;;;0.30;0.30;;;;;;;;;;5065568;28;20048;-81
2022/07/30 00:43:50;;;;;;;0.22;0.22;;;;;;;;;;5074191;28;20167;-79
2022/07/30 00:46:18;;;;;;;0.57;0.43;;;;;;;;;;5070276;28;20058;-80
2022/07/30 00:48:47;;;;;;;0.22;0.22;;;;;;;;;;5084644;28;20056;-80
2022/07/30 00:51:15;;;;;;;0.08;0.08;;;;;;;;;;5072824;28;20044;-80
2022/07/30 00:53:43;;;;;;;0.65;0.40;;;;;;;;;;5076472;28;20132;-79
2022/07/30 00:56:13;;;;;;;0.13;0.10;;;;;;;;;;5079335;28;20057;-80
2022/07/30 00:58:41;;;;;;;0.28;0.28;;;;;;;;;;5077652;28;20744;-80
2022/07/30 01:01:10;;;;;;;0.05;0.05;;;;;;;;;;5084096;28;20075;-79
2022/07/30 01:03:38;;;;;;;0.40;0.35;;;;;;;;;;5078660;28;20127;-80
2022/07/30 01:06:07;;;;;;;1.17;0.43;;;;;;;;;;5081795;28;20135;-80
2022/07/30 01:08:42;;;;;;;0.65;0.52;;;;;;;;;;5086254;28;20120;-80
2022/07/30 01:11:10;;;;;;;0.50;0.30;;;;;;;;;;5081794;28;20047;-79
2022/07/30 01:13:40;;;;;;;0.40;0.25;;;;;;;;;;5081189;28;20054;-79
2022/07/30 01:16:08;;;;;;;0.10;0.10;;;;;;;;;;5067764;28;20155;-80
2022/07/30 01:21:29;;;;;;;0.05;0.05;;;;;;;;;;5070693;28;20049;-80
2022/07/30 01:23:59;;;;;;;0.77;0.32;;;;;;;;;;5068591;28;20060;-80
2022/07/30 01:26:29;;;;;;;0.22;0.22;;;;;;;;;;5069087;28;20139;-79
2022/07/30 01:28:59;;;;;;;0.22;0.20;;;;;;;;;;5070078;28;20131;-79
2022/07/30 01:31:27;;;;;;;0.28;0.28;;;;;;;;;;5058309;28;20088;-79
2022/07/30 01:33:57;;;;;;;0.40;0.28;;;;;;;;;;5061390;28;20131;-79
2022/07/30 01:36:26;;;;;;;0.52;0.50;;;;;;;;;;5068547;28;20091;-78
2022/07/30 01:38:55;;;;;;;0.30;0.30;;;;;;;;;;5069104;28;20083;-78
2022/07/30 01:41:24;;;;;;;0.15;0.15;;;;;;;;;;5069525;28;20091;-78
2022/07/30 01:43:54;;;;;;;0.30;0.22;;;;;;;;;;5070607;28;20164;-78
2022/07/30 01:46:24;;;;;;;0.05;0.05;;;;;;;;;;5064725;28;20060;-78
2022/07/30 01:48:54;;;;;;;1.65;0.77;;;;;;;;;;5062560;28;20049;-78
2022/07/30 01:51:23;;;;;;;0.22;0.13;;;;;;;;;;5060824;28;20091;-78
2022/07/30 01:53:52;;;;;;;0.20;0.20;;;;;;;;;;5061381;28;20140;-78
2022/07/30 01:56:21;;;;;;;0.03;0.03;;;;;;;;;;5068226;28;20136;-78
2022/07/30 01:58:54;;;;;;;0.47;0.20;;;;;;;;;;5059644;28;20475;-78
2022/07/30 02:01:24;;;;;;;0.45;0.43;;;;;;;;;;5064554;28;20102;-78
2022/07/30 02:03:53;;;;;;;0.57;0.57;;;;;;;;;;5067542;28;20080;-77
2022/07/30 02:06:23;;;;;;;0.00;0.00;;;;;;;;;;5064448;28;20055;-78
2022/07/30 02:08:53;;;;;;;0.08;0.08;;;;;;;;;;5072801;28;20140;-78
2022/07/30 02:14:08;;;;;;;0.35;0.35;;;;;;;;;;5069446;28;20136;-78
2022/07/30 02:16:37;;;;;;;3.25;0.60;;;;;;;;;;5066886;28;20154;-77
2022/07/30 02:19:08;;;;;;;1.27;0.40;;;;;;;;;;5063600;28;20151;-77
2022/07/30 02:21:38;;;;;;;0.30;0.30;;;;;;;;;;5066518;28;20080;-79
2022/07/30 02:24:20;;;;;;;0.38;0.38;;;;;;;;;;5065905;28;20048;-83
2022/07/30 02:26:50;;;;;;;0.50;0.15;;;;;;;;;;5068105;28;20102;-80
2022/07/30 02:29:21;;;;;;;0.30;0.30;;;;;;;;;;5069440;28;20118;-79
2022/07/30 02:31:50;;;;;;;0.85;0.45;;;;;;;;;;5065020;28;20169;-79
2022/07/30 02:34:21;;;;;;;1.02;0.30;;;;;;;;;;5070396;28;20053;-78
2022/07/30 02:36:50;;;;;;;0.47;0.17;;;;;;;;;;5078601;28;20407;-77
2022/07/30 02:39:20;;;;;;;0.80;0.30;;;;;;;;;;5077886;28;20564;-76
2022/07/30 02:41:49;;;;;;;0.70;0.60;;;;;;;;;;5083051;28;20092;-76
2022/07/30 02:44:19;;;;;;;0.68;0.40;;;;;;;;;;5081595;28;20127;-76
2022/07/30 02:46:50;;;;;;;0.28;0.28;;;;;;;;;;5074326;28;20119;-76
2022/07/30 02:49:19;;;;;;;0.10;0.10;;;;;;;;;;5078428;28;20488;-76
2022/07/30 02:51:48;;;;;;;0.15;0.15;;;;;;;;;;5080145;28;20036;-76
2022/07/30 02:54:18;;;;;;;0.38;0.38;;;;;;;;;;5079838;28;20143;-76
2022/07/30 02:56:47;;;;;;;0.10;0.10;;;;;;;;;;5081430;28;20505;-76
2022/07/30 02:59:16;;;;;;;0.30;0.30;;;;;;;;;;5076282;28;20470;-76
2022/07/30 03:01:44;;;;;;;0.70;0.40;;;;;;;;;;5083007;28;20098;-76
2022/07/30 03:04:14;;;;;;;0.32;0.30;;;;;;;;;;5080711;28;20048;-76
2022/07/30 03:06:43;;;;;;;0.60;0.35;;;;;;;;;;5082329;28;20464;-76
2022/07/30 03:09:13;;;;;;;0.30;0.20;;;;;;;;;;5070443;28;20052;-76
2022/07/30 03:11:44;;;;;;;0.40;0.38;;;;;;;;;;5073791;28;20106;-76
2022/07/30 03:14:12;;;;;;;0.73;0.30;;;;;;;;;;5077577;28;20438;-76
2022/07/30 03:16:43;;;;;;;0.00;0.00;;;;;;;;;;5080823;28;20046;-76
2022/07/30 03:19:12;;;;;;;0.32;0.30;;;;;;;;;;5076486;28;20062;-76
2022/07/30 03:21:42;;;;;;;0.30;0.30;;;;;;;;;;5080059;28;20422;-77
2022/07/30 03:24:12;;;;;;;0.60;0.40;;;;;;;;;;5077399;28;20095;-76
2022/07/30 03:26:41;;;;;;;0.40;0.40;;;;;;;;;;5076596;28;20074;-79
2022/07/30 03:29:11;;;;;;;0.47;0.47;;;;;;;;;;5080883;28;20070;-77
2022/07/30 03:31:40;;;;;;;0.90;0.47;;;;;;;;;;5083741;28;20044;-77
2022/07/30 03:34:09;;;;;;;0.40;0.32;;;;;;;;;;5070471;28;20052;-76
2022/07/30 03:36:43;;;;;;;0.65;0.52;;;;;;;;;;5082073;28;20052;-77
2022/07/30 03:39:11;;;;;;;0.60;0.45;;;;;;;;;;5074258;28;20059;-77
2022/07/30 03:41:41;;;;;;;0.08;0.08;;;;;;;;;;5086135;28;20059;-76
2022/07/30 03:44:10;;;;;;;0.20;0.20;;;;;;;;;;5078441;28;20056;-78
2022/07/30 03:46:39;;;;;;;0.43;0.43;;;;;;;;;;5076420;28;20474;-77
2022/07/30 03:49:09;;;;;;;0.55;0.50;;;;;;;;;;5075495;28;20072;-77
2022/07/30 03:51:39;;;;;;;0.17;0.17;;;;;;;;;;5076505;28;20131;-77
2022/07/30 03:54:10;;;;;;;0.20;0.20;;;;;;;;;;5075569;28;20520;-79
2022/07/30 03:56:41;;;;;;;0.65;0.60;;;;;;;;;;5076085;28;20367;-81
2022/07/30 03:59:10;;;;;;;0.52;0.43;;;;;;;;;;5078286;28;20083;-83
2022/07/30 04:01:38;;;;;;;0.50;0.50;;;;;;;;;;5077505;28;20722;-82
2022/07/30 04:04:07;;;;;;;0.20;0.20;;;;;;;;;;5077902;28;20067;-79
2022/07/30 04:06:38;;;;;;;0.68;0.32;;;;;;;;;;5077615;28;20054;-81
2022/07/30 04:09:08;;;;;;;1.50;0.60;;;;;;;;;;5081128;28;20036;-80
2022/07/30 04:11:37;;;;;;;0.47;0.43;;;;;;;;;;5078381;28;20047;-80
2022/07/30 04:14:09;;;;;;;0.30;0.30;;;;;;;;;;5076438;28;20044;-80
2022/07/30 04:16:40;;;;;;;0.43;0.22;;;;;;;;;;5078009;28;20091;-80
2022/07/30 04:19:13;;;;;;;0.57;0.45;;;;;;;;;;5078225;28;20044;-83
2022/07/30 04:21:42;;;;;;;0.30;0.30;;;;;;;;;;5068998;28;20044;-79
2022/07/30 04:24:13;;;;;;;0.47;0.40;;;;;;;;;;5072876;28;20150;-84
2022/07/30 04:26:42;;;;;;;0.25;0.20;;;;;;;;;;5077652;28;20045;-80
2022/07/30 04:29:11;;;;;;;3.63;0.90;;;;;;;;;;5075791;28;20459;-84
2022/07/30 04:31:45;;;;;;;;;;;;;;;;;;5085713;28;20724;-80
2022/07/30 04:34:13;;;;;;;5.63;1.58;;;;;;;;;;5085941;28;19920;-80
2022/07/30 04:36:42;;;;;;;0.73;0.55;;;;;;;;;;5066802;28;20103;-78
2022/07/30 04:39:12;;;;;;;0.80;0.50;;;;;;;;;;5068811;28;20080;-81
2022/07/30 04:41:40;;;;;;;0.73;0.50;;;;;;;;;;5067108;28;20559;-81
2022/07/30 04:44:17;;;;;;;0.57;0.50;;;;;;;;;;5062404;28;20139;-84
2022/07/30 04:46:46;;;;;;;1.48;0.30;;;;;;;;;;5061282;28;20057;-79
2022/07/30 04:49:15;;;;;;;0.25;0.25;;;;;;;;;;5066572;28;20072;-80
2022/07/30 04:51:44;;;;;;;0.25;0.25;;;;;;;;;;5076838;28;20051;-80
2022/07/30 04:54:14;;;;;;;0.85;0.77;;;;;;;;;;5067525;28;20062;-80
2022/07/30 04:56:44;;;;;;;0.93;0.93;;;;;;;;;;5067992;28;20045;-80
2022/07/30 04:59:22;;;;;;;0.20;0.20;;;;;;;;;;5070683;28;20052;-79
2022/07/30 05:01:51;;;;;;;0.50;0.50;;;;;;;;;;5064835;28;20080;-79
2022/07/30 05:04:20;;;;;;;0.47;0.30;;;;;;;;;;5065371;28;20057;-79
2022/07/30 05:06:48;;;;;;;0.57;0.40;;;;;;;;;;5068591;28;20095;-79
2022/07/30 05:09:18;;;;;;;0.70;0.57;;;;;;;;;;5071183;28;20143;-79
2022/07/30 05:11:51;;;;;;;0.82;0.82;;;;;;;;;;5067035;28;20069;-80
2022/07/30 05:14:19;;;;;;;0.70;0.57;;;;;;;;;;5069919;28;20147;-79
2022/07/30 05:16:47;;;;;;;0.40;0.40;;;;;;;;;;5066983;27;20080;-80
2022/07/30 05:19:16;;;;;;;0.15;0.10;;;;;;;;;;5068314;28;20084;-81
2022/07/30 05:21:45;;;;;;;0.30;0.30;;;;;;;;;;5077282;28;20083;-81
2022/07/30 05:24:13;;;;;;;0.30;0.30;;;;;;;;;;5069090;28;20079;-82
2022/07/30 05:26:43;;;;;;;0.88;0.65;;;;;;;;;;5063502;28;20145;-80
2022/07/30 05:29:12;;;;;;;4.13;0.70;;;;;;;;;;5064637;28;20135;-78
2022/07/30 05:31:47;;;;;;;0.30;0.30;;;;;;;;;;5065002;28;20055;-78
2022/07/30 05:34:15;;;;;;;0.80;0.40;;;;;;;;;;5065282;28;20049;-77
2022/07/30 05:36:44;;;;;;;1.08;0.50;;;;;;;;;;5059121;28;20040;-77
2022/07/30 05:39:12;;;;;;;0.40;0.40;;;;;;;;;;5060701;28;20558;-77
2022/07/30 05:41:42;;;;;;;0.25;0.25;;;;;;;;;;5054057;28;20453;-76
2022/07/30 05:44:11;;;;;;;0.43;0.43;;;;;;;;;;5062445;28;20195;-77
2022/07/30 05:46:39;;;;;;;0.93;0.75;;;;;;;;;;5060284;28;20131;-77
2022/07/30 05:49:08;;;;;;;0.35;0.35;;;;;;;;;;5057359;28;20561;-78
2022/07/30 05:51:36;;;;;;;1.02;0.85;;;;;;;;;;5063056;28;20048;-78
2022/07/30 05:54:04;;;;;;;1.15;0.70;;;;;;;;;;5062001;28;20559;-77
2022/07/30 05:56:33;;;;;;;0.57;0.57;;;;;;;;;;5057828;28;20457;-76
2022/07/30 05:59:03;;;;;;;0.68;0.50;;;;;;;;;;5066058;28;20063;-81
2022/07/30 06:01:31;;;;;;;1.23;0.70;;;;;;;;;;5060857;28;20222;-76
2022/07/30 06:03:59;;;;;;;0.80;0.40;;;;;;;;;;5053860;28;20347;-76
2022/07/30 06:06:28;;;;;;;0.73;0.55;;;;;;;;;;5063907;28;20744;-75
2022/07/30 06:08:56;;;;;;;0.30;0.30;;;;;;;;;;5066799;28;20125;-76
2022/07/30 06:11:24;;;;;;;1.25;0.60;;;;;;;;;;5064361;28;20434;-76
2022/07/30 06:13:53;;;;;;;0.47;0.47;;;;;;;;;;5063991;28;20103;-76
2022/07/30 06:16:22;;;;;;;0.85;0.80;;;;;;;;;;5068737;28;20087;-76
2022/07/30 06:18:51;;;;;;;2.22;0.73;;;;;;;;;;5074688;28;20044;-78
2022/07/30 06:21:19;;;;;;;0.65;0.40;;;;;;;;;;5072981;28;20563;-79
2022/07/30 06:23:48;;;;;;;1.65;0.75;;;;;;;;;;5076948;28;20079;-77
2022/07/30 06:26:16;;;;;;;0.50;0.50;;;;;;;;;;5080807;28;20055;-78
2022/07/30 06:28:44;;;;;;;0.50;0.50;;;;;;;;;;5069835;28;20135;-78
2022/07/30 06:31:13;;;;;;;0.30;0.30;;;;;;;;;;5079189;28;20051;-77
2022/07/30 06:33:43;;;;;;;0.50;0.47;;;;;;;;;;5085813;28;20040;-76
2022/07/30 06:36:11;;;;;;;2.10;0.60;;;;;;;;;;5079311;28;20058;-77
2022/07/30 06:38:41;;;;;;;1.08;0.50;;;;;;;;;;5082340;28;20055;-77
2022/07/30 06:41:10;;;;;;;0.30;0.22;;;;;;;;;;5070263;28;20056;-77
2022/07/30 06:43:38;;;;;;;1.00;0.77;;;;;;;;;;5078031;28;20098;-76
2022/07/30 06:46:09;;;;;;;0.75;0.47;;;;;;;;;;5081095;28;20080;-77
2022/07/30 06:48:38;;;;;;;0.65;0.60;;;;;;;;;;5078953;28;20114;-77
2022/07/30 06:51:11;;;;;;;0.70;0.70;;;;;;;;;;5083734;28;20044;-77
2022/07/30 06:53:39;;;;;;;0.70;0.70;;;;;;;;;;5081989;28;20507;-77
2022/07/30 06:56:10;;;;;;;1.10;0.60;;;;;;;;;;5077574;28;20086;-77
2022/07/30 06:58:38;;;;;;;0.70;0.50;;;;;;;;;;5080728;28;20139;-77
2022/07/30 07:01:10;;;;;;;1.40;0.73;;;;;;;;;;5076260;28;20040;-77
2022/07/30 07:03:39;;;;;;;0.75;0.73;;;;;;;;;;5076543;28;20055;-77
2022/07/30 07:06:08;;;;;;;0.47;0.47;;;;;;;;;;5077820;28;20048;-77
2022/07/30 07:08:38;;;;;;;2.30;1.23;;;;;;;;;;5070186;28;20491;-83
2022/07/30 07:11:09;;;;;;;0.93;0.75;;;;;;;;;;5082372;28;20170;-76
2022/07/30 07:13:38;;;;;;;1.52;1.17;;;;;;;;;;5077466;28;20084;-76
2022/07/30 07:16:09;;;;;;;1.20;0.65;;;;;;;;;;5068516;28;20079;-76
2022/07/30 07:18:37;;;;;;;1.85;1.30;;;;;;;;;;5075406;28;20075;-76
2022/07/30 07:21:09;;;;;;;0.57;0.40;;;;;;;;;;5079031;28;20126;-77
2022/07/30 07:23:38;;;;;;;1.95;1.00;;;;;;;;;;5071547;28;20576;-76
2022/07/30 07:26:09;;;;;;;2.05;0.70;;;;;;;;;;5075877;28;20044;-76
2022/07/30 07:28:38;;;;;;;2.17;1.23;;;;;;;;;;5076407;28;20105;-78
2022/07/30 07:31:07;;;;;;;0.57;0.57;;;;;;;;;;5068544;28;20055;-78
2022/07/30 07:33:35;;;;;;;2.45;1.10;;;;;;;;;;5077101;28;20125;-75
2022/07/30 07:36:09;;;;;;;1.30;1.20;;;;;;;;;;5077825;28;20048;-76
2022/07/30 07:38:38;;;;;;;1.13;0.70;;;;;;;;;;5080644;28;20123;-78
2022/07/30 07:41:10;;;;;;;1.63;1.17;;;;;;;;;;5080471;28;20086;-78
2022/07/30 07:43:39;;;;;;;1.30;0.85;;;;;;;;;;5070901;28;20428;-79
2022/07/30 07:46:08;;;;;;;0.88;0.68;;;;;;;;;;5076654;28;20040;-77
2022/07/30 07:48:36;;;;;;;1.38;0.88;;;;;;;;;;5072722;28;20474;-77
2022/07/30 07:51:09;;;;;;;0.73;0.50;;;;;;;;;;5076433;28;20052;-77
2022/07/30 07:53:38;;;;;;;1.63;1.10;;;;;;;;;;5076499;28;20110;-78
2022/07/30 07:56:10;;;;;;;0.63;0.40;;;;;;;;;;5076200;28;20131;-77
2022/07/30 07:58:38;;;;;;;2.95;1.23;;;;;;;;;;5076805;28;20079;-78
2022/07/30 08:01:10;;;;;;;4.25;1.35;;;;;;;;;;5073049;28;20049;-80
2022/07/30 08:03:39;;;;;;;3.65;1.58;;;;;;;;;;5078190;28;20079;-79
2022/07/30 08:06:10;;;;;;;1.75;1.10;;;;;;;;;;5078571;28;20044;-76
2022/07/30 08:08:44;;;;;;;2.20;1.38;;;;;;;;;;5081293;28;20102;-78
2022/07/30 08:11:12;;;;;;;2.50;1.48;;;;;;;;;;5085337;28;20052;-78
2022/07/30 08:13:41;;;;;;;4.85;2.22;;;;;;;;;;5078215;28;20071;-76
2022/07/30 08:16:19;;;;;;;3.13;1.70;;;;;;;;;;5069916;28;20080;-75
2022/07/30 08:18:48;;;;;;;2.03;0.98;;;;;;;;;;5066594;28;20049;-75
2022/07/30 08:21:17;;;;;;;0.73;0.50;;;;;;;;;;5068576;28;20471;-79
2022/07/30 08:23:47;;;;;;;1.05;0.93;;;;;;;;;;5069370;28;20052;-77
2022/07/30 08:26:15;;;;;;;1.90;1.33;;;;;;;;;;5068025;28;20056;-78
2022/07/30 08:28:44;;;;;;;1.63;1.38;;;;;;;;;;5064365;28;20142;-76
2022/07/30 08:31:13;;;;;;;1.55;1.10;;;;;;;;;;5064203;28;20057;-78
2022/07/30 08:33:41;;;;;;;2.20;1.00;;;;;;;;;;5064042;28;20487;-80
2022/07/30 08:36:10;;;;;;;1.65;1.30;;;;;;;;;;5066923;28;20044;-78
2022/07/30 08:38:38;;;;;;;2.70;1.30;;;;;;;;;;5075108;28;20411;-81
2022/07/30 08:41:12;;;;;;;1.38;1.02;;;;;;;;;;5073725;28;20048;-79
2022/07/30 08:43:40;;;;;;;0.93;0.85;;;;;;;;;;5067496;28;20076;-78
2022/07/30 08:46:10;;;;;;;4.22;1.88;;;;;;;;;;5069208;28;20084;-79
2022/07/30 08:48:38;;;;;;;3.58;0.85;;;;;;;;;;5064282;28;20071;-82
2022/07/30 08:51:10;;;;;;;1.65;1.23;;;;;;;;;;5068129;28;20119;-85
2022/07/30 08:53:38;;;;;;;3.25;1.13;;;;;;;;;;5062948;28;20178;-83
2022/07/30 08:56:12;;;;;;;1.92;0.90;;;;;;;;;;5067473;28;20041;-80
2022/07/30 08:58:42;;;;;;;2.35;1.15;;;;;;;;;;5061979;28;20081;-80
2022/07/30 09:01:10;;;;;;;1.02;0.70;;;;;;;;;;5066082;28;20048;-80
2022/07/30 09:03:39;;;;;;;1.45;1.20;;;;;;;;;;5067347;28;20456;-80
2022/07/30 09:06:12;;;;;;;1.15;0.90;;;;;;;;;;5069536;28;20045;-80
2022/07/30 09:08:40;;;;;;;0.90;0.68;;;;;;;;;;5064390;28;20080;-79
2022/07/30 09:11:09;;;;;;;4.25;0.70;;;;;;;;;;5062531;28;20135;-81
2022/07/30 09:13:41;;;;;;;1.77;1.10;;;;;;;;;;5067159;28;20076;-80
2022/07/30 09:16:19;;;;;;;0.93;0.93;;;;;;;;;;5057357;28;20545;-81
2022/07/30 09:18:47;;;;;;;2.00;0.95;;;;;;;;;;5059730;28;20401;-79
2022/07/30 09:21:17;;;;;;;6.03;1.02;;;;;;;;;;5059306;28;20863;-79
2022/07/30 09:23:59;;;;;;;0.77;0.73;;;;;;;;;;5059116;28;20237;-81
2022/07/30 09:26:28;;;;;;;0.95;0.75;;;;;;;;;;5058097;28;20223;-79
2022/07/30 09:29:15;;;;;;;2.28;1.23;;;;;;;;;;5059785;28;20555;-79
2022/07/30 09:31:53;;;;;;;3.63;1.38;;;;;;;;;;5058444;28;20060;-79
2022/07/30 09:34:25;;;;;;;1.67;1.27;;;;;;;;;;5063800;28;20044;-78
2022/07/30 09:36:54;;;;;;;2.25;1.30;;;;;;;;;;5075495;28;20423;-79
2022/07/30 09:39:29;;;;;;;1.65;1.27;;;;;;;;;;5083463;28;20132;-81
2022/07/30 09:41:57;;;;;;;;;;;;;;;;;;5080677;28;20134;-79
2022/07/30 09:44:28;;;;;;;1.33;0.88;;;;;;;;;;5081754;28;19935;-77
2022/07/30 09:46:57;;;;;;;1.15;0.77;;;;;;;;;;5076234;28;20047;-78
2022/07/30 09:49:26;;;;;;;1.58;0.70;;;;;;;;;;5073112;28;20054;-81
2022/07/30 09:51:55;;;;;;;0.50;0.50;;;;;;;;;;5072540;28;20064;-80
2022/07/30 09:54:25;;;;;;;0.70;0.70;;;;;;;;;;5079632;28;20054;-81
2022/07/30 09:57:11;;;;;;;1.83;1.00;;;;;;;;;;5082732;28;20056;-82
2022/07/30 09:59:56;;;;;;;0.82;0.82;;;;;;;;;;5078064;28;20047;-81
2022/07/30 10:02:29;;;;;;;1.10;0.85;;;;;;;;;;5075705;28;20052;-79
2022/07/30 10:05:09;;;;;;;1.00;0.90;;;;;;;;;;5078260;28;20080;-79
2022/07/30 10:07:49;;;;;;;0.70;0.57;;;;;;;;;;5076491;28;20060;-80
2022/07/30 10:10:19;;;;;;;2.97;0.90;;;;;;;;;;5079409;28;20087;-80
2022/07/30 10:12:48;;;;;;;2.30;1.45;;;;;;;;;;5084007;28;20155;-77
2022/07/30 10:15:19;;;;;;;1.30;0.80;;;;;;;;;;5070259;28;20450;-80
2022/07/30 10:17:48;;;;;;;1.67;0.90;;;;;;;;;;5059657;28;20059;-79
2022/07/30 10:20:17;;;;;;;3.25;0.95;;;;;;;;;;5061166;28;20129;-80
2022/07/30 10:22:46;;;;;;;1.60;0.85;;;;;;;;;;5059065;28;20972;-80
2022/07/30 10:25:18;;;;;;;0.60;0.55;;;;;;;;;;5057193;28;20056;-79
2022/07/30 10:27:51;;;;;;;1.02;0.85;;;;;;;;;;5078543;28;20040;-78
2022/07/30 10:30:27;;;;;;;1.77;0.60;;;;;;;;;;5075452;28;20054;-78
2022/07/30 10:32:58;;;;;;;2.00;0.65;;;;;;;;;;5073063;28;20056;-78
2022/07/30 10:35:27;;;;;;;0.80;0.50;;;;;;;;;;5074398;28;20058;-78
2022/07/30 10:38:08;;;;;;;1.85;0.75;;;;;;;;;;5076250;28;20101;-78
2022/07/30 10:40:38;;;;;;;0.85;0.50;;;;;;;;;;5078603;28;20114;-77
2022/07/30 10:43:16;;;;;;;0.47;0.32;;;;;;;;;;5081001;28;20179;-77
2022/07/30 10:45:53;;;;;;;0.75;0.60;;;;;;;;;;5075849;28;20048;-78
2022/07/30 10:48:22;;;;;;;1.95;0.93;;;;;;;;;;5078382;28;20953;-77
2022/07/30 10:50:52;;;;;;;0.65;0.50;;;;;;;;;;5086103;28;20047;-77
2022/07/30 10:53:32;;;;;;;0.60;0.60;;;;;;;;;;5078394;28;20219;-78
2022/07/30 10:56:24;;;;;;;0.77;0.52;;;;;;;;;;5078427;28;20049;-72
2022/07/30 10:59:03;;;;;;;2.53;0.60;;;;;;;;;;5076952;28;20127;-73
2022/07/30 11:01:54;;;;;;;0.55;0.50;;;;;;;;;;5075173;28;20048;-72
2022/07/30 11:04:26;;;;;;;0.88;0.57;;;;;;;;;;5077140;28;20132;-72
2022/07/30 11:07:23;;;;;;;1.02;0.32;;;;;;;;;;5079144;28;20155;-72
2022/07/30 11:09:54;;;;;;;0.70;0.60;;;;;;;;;;5076084;28;20103;-71
2022/07/30 11:12:53;;;;;;;1.88;0.60;;;;;;;;;;5077848;28;20048;-72
2022/07/30 11:15:22;;;;;;;1.05;0.80;;;;;;;;;;5072131;28;20226;-72
2022/07/30 11:18:07;;;;;;;0.63;0.60;;;;;;;;;;5074044;28;20075;-72
2022/07/30 11:20:41;;;;;;;1.30;0.80;;;;;;;;;;5076674;28;20044;-72
2022/07/30 11:23:34;;;;;;;1.60;0.60;;;;;;;;;;5082305;28;20052;-73
2022/07/30 11:26:10;;;;;;;1.05;0.63;;;;;;;;;;5073526;28;20132;-71
2022/07/30 11:28:43;;;;;;;1.58;0.35;;;;;;;;;;5077573;28;20056;-72
2022/07/30 11:31:28;;;;;;;1.75;1.15;;;;;;;;;;5083085;28;20133;-71
2022/07/30 11:34:24;;;;;;;0.50;0.40;;;;;;;;;;5074223;28;20064;-71
2022/07/30 11:37:08;;;;;;;1.10;0.90;;;;;;;;;;5079282;28;20171;-71
2022/07/30 11:40:09;;;;;;;0.98;0.60;;;;;;;;;;5082355;28;20064;-70
2022/07/30 11:42:38;;;;;;;0.65;0.43;;;;;;;;;;5077266;28;20109;-70
2022/07/30 11:45:25;;;;;;;0.52;0.52;;;;;;;;;;5079696;28;20482;-70
2022/07/30 11:47:55;;;;;;;0.40;0.35;;;;;;;;;;5080718;28;20051;-69
2022/07/30 11:50:25;;;;;;;1.13;0.70;;;;;;;;;;5077961;28;20101;-71
2022/07/30 11:52:56;;;;;;;2.72;0.70;;;;;;;;;;5081684;28;20392;-73
2022/07/30 11:55:25;;;;;;;0.90;0.63;;;;;;;;;;5081515;28;20137;-70
2022/07/30 11:57:54;;;;;;;0.95;0.82;;;;;;;;;;5074733;28;20141;-71
2022/07/30 12:00:23;;;;;;;0.40;0.40;;;;;;;;;;5080944;28;20120;-69
2022/07/30 12:02:51;;;;;;;0.82;0.60;;;;;;;;;;5083050;28;20055;-72
2022/07/30 12:05:26;;;;;;;2.33;0.47;;;;;;;;;;5085792;28;20072;-70
2022/07/30 12:07:59;;;;;;;0.55;0.40;;;;;;;;;;5081031;28;20512;-70
2022/07/30 12:10:28;;;;;;;0.60;0.47;;;;;;;;;;5074906;28;20051;-70
2022/07/30 12:13:07;;;;;;;0.45;0.45;;;;;;;;;;5082893;28;20048;-71
2022/07/30 12:15:37;;;;;;;0.93;0.60;;;;;;;;;;5087049;28;20048;-71
2022/07/30 12:18:06;;;;;;;0.20;0.20;;;;;;;;;;5078950;28;20043;-71
2022/07/30 12:20:56;;;;;;;0.60;0.40;;;;;;;;;;5084793;28;20051;-71
2022/07/30 12:23:26;;;;;;;1.33;0.40;;;;;;;;;;5085675;28;20487;-69
2022/07/30 12:25:55;;;;;;;1.38;0.43;;;;;;;;;;5080487;28;20067;-71
2022/07/30 12:28:25;;;;;;;0.77;0.45;;;;;;;;;;5083023;28;20102;-69
2022/07/30 12:30:54;;;;;;;0.30;0.30;;;;;;;;;;5081143;28;20055;-70
2022/07/30 12:33:22;;;;;;;0.50;0.40;;;;;;;;;;5083131;28;20093;-70
2022/07/30 12:35:52;;;;;;;0.68;0.55;;;;;;;;;;5086301;28;20484;-69
2022/07/30 12:38:22;;;;;;;1.35;0.77;;;;;;;;;;5078587;28;20087;-70
2022/07/30 12:40:56;;;;;;;0.68;0.60;;;;;;;;;;5082455;28;20123;-70
2022/07/30 12:43:24;;;;;;;;;;;;;;;;;;5082164;28;20052;-71
2022/07/30 12:45:58;;;;;;;3.08;1.13;;;;;;;;;;5087876;28;20022;-70
2022/07/30 12:48:27;;;;;;;0.22;0.22;;;;;;;;;;5075947;28;20186;-72
2022/07/30 12:51:07;;;;;;;0.73;0.47;;;;;;;;;;5079221;28;20145;-71
2022/07/30 12:53:36;;;;;;;0.70;0.47;;;;;;;;;;5084738;28;20084;-70
2022/07/30 12:56:12;;;;;;;0.47;0.47;;;;;;;;;;5087736;28;20117;-71
2022/07/30 12:58:41;;;;;;;0.70;0.50;;;;;;;;;;5077403;28;20052;-71
2022/07/30 13:01:13;;;;;;;0.70;0.47;;;;;;;;;;5078910;28;20044;-72
2022/07/30 13:03:44;;;;;;;0.73;0.50;;;;;;;;;;5080732;28;20073;-72
2022/07/30 13:06:16;;;;;;;1.60;0.50;;;;;;;;;;5088561;28;20048;-71
2022/07/30 13:08:46;;;;;;;1.55;0.60;;;;;;;;;;5079316;28;20058;-69
2022/07/30 13:11:16;;;;;;;1.33;0.70;;;;;;;;;;5081791;28;20409;-71
2022/07/30 13:13:44;;;;;;;0.47;0.40;;;;;;;;;;5087929;28;20098;-70
2022/07/30 13:16:13;;;;;;;0.68;0.60;;;;;;;;;;5085216;28;20071;-72
2022/07/30 13:18:42;;;;;;;0.70;0.63;;;;;;;;;;5079996;28;20052;-70
2022/07/30 13:21:10;;;;;;;1.55;1.02;;;;;;;;;;5087769;28;20127;-71
2022/07/30 13:23:40;;;;;;;0.63;0.40;;;;;;;;;;5084344;28;20086;-71
2022/07/30 13:26:09;;;;;;;0.73;0.57;;;;;;;;;;5083605;28;20130;-71
2022/07/30 13:28:39;;;;;;;0.57;0.52;;;;;;;;;;5089903;28;20467;-70
2022/07/30 13:31:10;;;;;;;0.57;0.40;;;;;;;;;;5084554;28;20143;-70
2022/07/30 13:33:39;;;;;;;0.65;0.60;;;;;;;;;;5075427;28;20102;-69
2022/07/30 13:36:10;;;;;;;0.68;0.60;;;;;;;;;;5080668;28;20056;-71
2022/07/30 13:38:39;;;;;;;0.43;0.40;;;;;;;;;;5074097;28;20174;-71
2022/07/30 13:41:10;;;;;;;6.07;1.45;;;;;;;;;;5079886;28;20047;-70
2022/07/30 13:43:40;;;;;;;0.70;0.70;;;;;;;;;;5078600;28;20067;-70
2022/07/30 13:46:08;;;;;;;0.57;0.52;;;;;;;;;;5078131;28;20056;-72
2022/07/30 13:48:37;;;;;;;0.47;0.47;;;;;;;;;;5078765;28;20142;-70
2022/07/30 13:51:08;;;;;;;0.57;0.47;;;;;;;;;;5084268;28;20101;-71
2022/07/30 13:53:37;;;;;;;0.98;0.85;;;;;;;;;;5086019;28;20098;-70
2022/07/30 13:56:08;;;;;;;2.60;0.75;;;;;;;;;;5075955;28;20063;-71
2022/07/30 13:58:41;;;;;;;2.63;0.43;;;;;;;;;;5077470;28;20063;-71
2022/07/30 14:01:10;;;;;;;0.77;0.57;;;;;;;;;;5083121;28;20138;-70
2022/07/30 14:03:45;;;;;;;1.83;0.85;;;;;;;;;;5073587;28;20045;-70
2022/07/30 14:06:17;;;;;;;1.23;0.60;;;;;;;;;;5082468;28;20050;-73
2022/07/30 14:08:46;;;;;;;0.43;0.43;;;;;;;;;;5078275;28;20522;-70
2022/07/30 14:11:15;;;;;;;0.82;0.75;;;;;;;;;;5074566;28;20087;-72
2022/07/30 14:13:45;;;;;;;1.33;0.50;;;;;;;;;;5080496;28;20041;-70
2022/07/30 14:16:14;;;;;;;0.57;0.57;;;;;;;;;;5075249;28;20089;-70
2022/07/30 14:19:02;;;;;;;1.05;0.77;;;;;;;;;;5078724;28;20406;-69
2022/07/30 14:21:30;;;;;;;1.02;0.80;;;;;;;;;;5074850;28;20145;-71
2022/07/30 14:23:59;;;;;;;0.55;0.55;;;;;;;;;;5081922;28;20139;-70
2022/07/30 14:26:27;;;;;;;0.55;0.40;;;;;;;;;;5078631;28;20036;-71
2022/07/30 14:29:05;;;;;;;0.60;0.60;;;;;;;;;;5083020;28;20044;-71
2022/07/30 14:31:34;;;;;;;0.70;0.50;;;;;;;;;;5085108;28;20048;-71
2022/07/30 14:34:02;;;;;;;3.33;0.70;;;;;;;;;;5084438;28;20140;-70
2022/07/30 14:36:31;;;;;;;0.57;0.50;;;;;;;;;;5083517;28;20139;-71
2022/07/30 14:39:00;;;;;;;0.95;0.55;;;;;;;;;;5088300;28;20136;-70
2022/07/30 14:41:29;;;;;;;0.47;0.47;;;;;;;;;;5085554;28;20162;-70
2022/07/30 14:43:57;;;;;;;0.60;0.52;;;;;;;;;;5088921;28;20040;-71
2022/07/30 14:46:27;;;;;;;0.60;0.60;;;;;;;;;;5085556;28;20129;-70
2022/07/30 14:48:56;;;;;;;0.70;0.50;;;;;;;;;;5084873;28;20113;-70
2022/07/30 14:51:24;;;;;;;0.68;0.63;;;;;;;;;;5083804;28;20506;-70
2022/07/30 14:53:55;;;;;;;0.55;0.55;;;;;;;;;;5088009;28;20566;-71
2022/07/30 14:56:24;;;;;;;0.77;0.40;;;;;;;;;;5083937;28;20044;-71
2022/07/30 14:58:53;;;;;;;0.40;0.40;;;;;;;;;;5087762;28;20087;-71
2022/07/30 15:01:22;;;;;;;0.68;0.50;;;;;;;;;;5078379;28;20146;-71
2022/07/30 15:03:52;;;;;;;1.17;0.85;;;;;;;;;;5087600;28;20048;-70
2022/07/30 15:06:20;;;;;;;0.75;0.63;;;;;;;;;;5085660;28;20138;-70
2022/07/30 15:08:48;;;;;;;0.52;0.52;;;;;;;;;;5078995;28;20904;-70
2022/07/30 15:11:17;;;;;;;1.08;0.70;;;;;;;;;;5083445;28;20101;-70